Time;durP1;ratioP1;P1;durP2;ratioP2;P2;SDS_P1;SDS_P2;PMS_P1;PMS_P2;Temp;Humidity;BMP_temperature;BMP_pressure;BME280_temperature;BME280_humidity;BME280_pressure;Samples;Min_cycle;Max_cycle;Signal;HPM_P1;HPM_P2
2021/04/23 00:00:23;;;;;;;17.42;13.40;;;13.00;98.30;;;;;;5097243;28;20118;-69
2021/04/23 00:02:49;;;;;;;17.35;13.80;;;12.90;98.70;;;;;;5115690;28;20051;-70
2021/04/23 00:05:16;;;;;;;17.95;13.00;;;12.80;98.20;;;;;;5115546;28;20031;-69
2021/04/23 00:07:42;;;;;;;18.65;13.93;;;12.70;98.50;;;;;;5115545;28;20034;-70
2021/04/23 00:10:13;;;;;;;18.38;13.55;;;12.60;99.40;;;;;;5115501;28;20031;-69
2021/04/23 00:12:40;;;;;;;17.00;13.45;;;12.60;99.00;;;;;;5096196;28;20047;-70
2021/04/23 00:15:10;;;;;;;18.60;14.43;;;12.50;99.10;;;;;;5115357;28;20027;-70
2021/04/23 00:17:36;;;;;;;18.38;14.55;;;12.50;99.30;;;;;;5097055;28;20055;-70
2021/04/23 00:20:13;;;;;;;19.67;14.65;;;12.40;99.70;;;;;;5096884;28;20063;-69
2021/04/23 00:22:39;;;;;;;18.42;13.27;;;12.40;99.80;;;;;;5114942;28;20494;-70
2021/04/23 00:25:07;;;;;;;21.15;14.18;;;12.40;99.50;;;;;;5114792;28;20564;-69
2021/04/23 00:27:33;;;;;;;19.38;14.77;;;12.30;99.40;;;;;;5115253;28;20046;-71
2021/04/23 00:30:00;;;;;;;18.90;14.88;;;12.30;99.90;;;;;;5115079;28;20420;-68
2021/04/23 00:35:13;;;;;;;18.70;13.70;;;12.20;99.90;;;;;;5114786;28;20066;-69
2021/04/23 00:37:46;;;;;;;16.50;11.98;;;12.30;99.90;;;;;;5114943;28;20111;-70
2021/04/23 00:40:14;;;;;;;17.08;12.30;;;12.40;99.50;;;;;;5096571;28;20063;-70
2021/04/23 00:42:39;;;;;;;13.80;11.32;;;12.40;99.40;;;;;;5096614;28;20063;-70
2021/04/23 00:45:07;;;;;;;18.63;12.73;;;12.40;99.20;;;;;;5096485;28;20051;-69
2021/04/23 00:47:32;;;;;;;16.10;12.60;;;12.40;99.40;;;;;;5114677;28;20028;-69
2021/04/23 00:49:58;;;;;;;16.92;12.20;;;12.40;99.50;;;;;;5114580;28;20027;-71
2021/04/23 00:52:24;;;;;;;17.15;12.48;;;12.40;99.50;;;;;;5114729;28;20032;-71
2021/04/23 00:54:50;;;;;;;15.73;11.90;;;12.40;99.40;;;;;;5114615;28;20118;-71
2021/04/23 00:57:16;;;;;;;15.50;11.73;;;12.40;99.30;;;;;;5114840;28;20023;-69
2021/04/23 00:59:42;;;;;;;18.08;11.27;;;12.40;99.20;;;;;;5114449;28;20027;-72
2021/04/23 01:02:10;;;;;;;23.33;12.25;;;12.40;98.70;;;;;;5114430;28;20380;-70
2021/04/23 01:04:37;;;;;;;15.98;11.25;;;12.40;98.90;;;;;;5114434;28;20136;-69
2021/04/23 01:07:04;;;;;;;16.10;11.80;;;12.40;98.90;;;;;;5114357;28;20035;-71
2021/04/23 01:09:31;;;;;;;18.98;11.90;;;12.40;98.90;;;;;;5095984;28;20169;-69
2021/04/23 01:11:59;;;;;;;17.30;12.27;;;12.40;98.90;;;;;;5114285;28;20043;-68
2021/04/23 01:14:27;;;;;;;19.88;11.85;;;12.40;98.80;;;;;;5114213;28;20052;-70
2021/04/23 01:16:53;;;;;;;16.98;12.35;;;12.40;98.80;;;;;;5114152;28;20092;-70
2021/04/23 01:19:22;;;;;;;17.65;11.25;;;12.40;98.60;;;;;;5095829;28;20023;-72
2021/04/23 01:21:49;;;;;;;19.05;12.13;;;12.30;98.80;;;;;;5114097;28;20107;-70
2021/04/23 01:24:18;;;;;;;15.55;11.43;;;12.30;98.80;;;;;;5095536;28;20019;-70
2021/04/23 01:26:49;;;;;;;15.77;11.80;;;12.30;99.00;;;;;;5113555;28;20069;-70
2021/04/23 01:29:16;;;;;;;15.45;12.18;;;12.20;98.90;;;;;;5095740;28;20034;-71
2021/04/23 01:31:46;;;;;;;20.02;14.35;;;12.20;99.00;;;;;;5113953;28;20032;-71
2021/04/23 01:34:17;;;;;;;17.40;13.00;;;12.20;99.00;;;;;;5113842;28;20031;-71
2021/04/23 01:36:43;;;;;;;19.87;14.63;;;12.30;99.10;;;;;;5113945;28;20080;-70
2021/04/23 01:39:13;;;;;;;20.95;14.63;;;12.20;99.30;;;;;;5113755;28;20032;-72
2021/04/23 01:41:40;;;;;;;22.30;15.25;;;12.20;99.70;;;;;;5113786;28;20039;-72
2021/04/23 01:44:07;;;;;;;23.15;14.68;;;12.20;99.30;;;;;;5114008;28;20028;-72
2021/04/23 01:46:33;;;;;;;20.70;16.30;;;12.10;99.60;;;;;;5113653;28;20036;-70
2021/04/23 01:49:11;;;;;;;21.83;16.15;;;12.10;99.70;;;;;;5113661;28;20107;-73
2021/04/23 01:51:44;;;;;;;22.25;16.33;;;12.00;99.90;;;;;;5095326;28;20030;-72
2021/04/23 01:54:11;;;;;;;21.23;16.30;;;12.00;99.90;;;;;;5113659;28;20027;-72
2021/04/23 01:56:37;;;;;;;23.40;17.45;;;12.00;99.90;;;;;;5095281;28;20514;-71
2021/04/23 01:59:05;;;;;;;22.17;17.38;;;12.00;99.90;;;;;;5095197;28;20031;-72
2021/04/23 02:01:31;;;;;;;27.50;18.00;;;11.90;99.90;;;;;;5095184;28;20069;-70
2021/04/23 02:03:57;;;;;;;25.58;17.73;;;11.90;99.90;;;;;;5113523;28;20031;-73
2021/04/23 02:06:23;;;;;;;26.30;18.63;;;11.90;99.90;;;;;;5113537;28;20509;-70
2021/04/23 02:08:51;;;;;;;24.35;19.02;;;11.90;99.90;;;;;;5095179;28;20133;-72
2021/04/23 02:11:18;;;;;;;24.58;18.20;;;11.80;99.90;;;;;;5095157;28;20038;-71
2021/04/23 02:13:46;;;;;;;29.27;20.05;;;11.70;99.90;;;;;;5113470;28;20106;-70
2021/04/23 02:16:14;;;;;;;28.25;21.42;;;11.80;99.90;;;;;;5113414;28;20095;-70
2021/04/23 02:18:41;;;;;;;26.77;20.92;;;11.70;99.90;;;;;;5113338;28;20498;-72
2021/04/23 02:21:08;;;;;;;28.00;20.40;;;11.60;99.90;;;;;;5113274;28;20086;-71
2021/04/23 02:23:35;;;;;;;32.83;21.95;;;11.60;99.90;;;;;;5094954;28;20408;-70
2021/04/23 02:26:02;;;;;;;31.83;21.48;;;11.60;99.90;;;;;;5112584;28;20488;-71
2021/04/23 02:28:28;;;;;;;28.92;21.13;;;11.60;99.90;;;;;;5113026;28;20073;-73
2021/04/23 02:31:08;;;;;;;31.95;22.38;;;11.60;99.90;;;;;;5113530;28;20031;-71
2021/04/23 02:33:35;;;;;;;33.90;24.05;;;11.60;99.90;;;;;;5094920;28;20035;-72
2021/04/23 02:36:03;;;;;;;42.97;29.52;;;11.50;99.90;;;;;;5114385;28;20103;-72
2021/04/23 02:38:29;;;;;;;37.55;24.50;;;11.50;99.90;;;;;;5098889;28;20027;-73
2021/04/23 02:40:57;;;;;;;30.92;23.25;;;11.60;99.90;;;;;;5116836;28;20494;-71
2021/04/23 02:43:27;;;;;;;32.38;24.80;;;11.60;99.90;;;;;;5117464;28;20085;-71
2021/04/23 02:45:54;;;;;;;34.75;25.63;;;11.60;99.90;;;;;;5098776;28;20097;-69
2021/04/23 02:48:24;;;;;;;33.22;25.10;;;11.60;99.90;;;;;;5117060;28;20034;-71
2021/04/23 02:50:54;;;;;;;31.15;23.42;;;11.70;99.90;;;;;;5098397;28;20035;-72
2021/04/23 02:53:21;;;;;;;32.10;23.48;;;11.70;99.90;;;;;;5117033;28;20472;-73
2021/04/23 02:55:47;;;;;;;33.70;24.00;;;11.70;99.90;;;;;;5098602;28;20472;-71
2021/04/23 02:58:17;;;;;;;36.75;25.33;;;11.70;99.90;;;;;;5098573;28;20532;-70
2021/04/23 03:00:50;;;;;;;35.60;23.08;;;11.70;99.90;;;;;;5116768;28;20067;-71
2021/04/23 03:03:16;;;;;;;31.15;22.80;;;11.70;99.90;;;;;;5116802;28;20472;-73
2021/04/23 03:05:45;;;;;;;32.53;24.70;;;11.70;99.90;;;;;;5098413;28;20494;-70
2021/04/23 03:08:11;;;;;;;34.70;23.80;;;11.60;99.90;;;;;;5098678;28;20494;-72
2021/04/23 03:10:40;;;;;;;33.40;24.50;;;11.60;99.90;;;;;;5098261;28;20034;-70
2021/04/23 03:13:11;;;;;;;31.55;22.80;;;11.60;99.90;;;;;;5116624;28;20117;-73
2021/04/23 03:15:38;;;;;;;34.28;22.42;;;11.50;99.90;;;;;;5098235;28;20348;-72
2021/04/23 03:18:05;;;;;;;31.40;23.02;;;11.50;99.90;;;;;;5116495;28;20161;-73
2021/04/23 03:20:32;;;;;;;33.63;22.50;;;11.50;99.90;;;;;;5098081;28;20031;-72
2021/04/23 03:22:58;;;;;;;34.03;22.52;;;11.40;99.90;;;;;;5116476;28;20031;-70
2021/04/23 03:25:25;;;;;;;27.98;21.02;;;11.40;99.90;;;;;;5115831;28;20047;-70
2021/04/23 03:27:52;;;;;;;29.25;21.08;;;11.40;99.90;;;;;;5116400;28;20459;-71
2021/04/23 03:30:25;;;;;;;31.63;21.55;;;11.30;99.90;;;;;;5097965;28;20038;-70
2021/04/23 03:32:51;;;;;;;26.80;19.73;;;11.30;99.90;;;;;;5097924;28;20065;-70
2021/04/23 03:35:17;;;;;;;27.33;18.83;;;11.20;99.90;;;;;;5097899;28;20032;-71
2021/04/23 03:37:44;;;;;;;28.30;19.10;;;11.20;99.90;;;;;;5097769;28;20032;-73
2021/04/23 03:40:11;;;;;;;24.58;18.20;;;11.20;99.90;;;;;;5116072;28;20073;-71
2021/04/23 03:42:38;;;;;;;25.73;18.98;;;11.20;99.90;;;;;;5097340;28;20023;-70
2021/04/23 03:45:06;;;;;;;28.10;19.48;;;11.20;99.90;;;;;;5097653;28;20127;-72
2021/04/23 03:47:32;;;;;;;23.88;18.67;;;11.20;99.90;;;;;;5115894;28;20472;-73
2021/04/23 03:49:58;;;;;;;27.58;18.92;;;11.20;99.90;;;;;;5115799;28;20058;-72
2021/04/23 03:52:24;;;;;;;27.88;19.38;;;11.10;99.90;;;;;;5097417;28;20455;-69
2021/04/23 03:54:51;;;;;;;25.13;17.35;;;11.10;99.90;;;;;;5115805;28;20023;-73
2021/04/23 03:57:17;;;;;;;38.13;19.50;;;11.20;99.90;;;;;;5115697;28;20024;-72
2021/04/23 03:59:43;;;;;;;29.27;19.63;;;11.10;99.90;;;;;;5115606;28;20303;-71
2021/04/23 04:02:08;;;;;;;30.90;18.70;;;11.20;99.90;;;;;;5115890;28;20035;-71
2021/04/23 04:04:34;;;;;;;26.70;18.30;;;11.20;99.90;;;;;;5097275;28;20028;-71
2021/04/23 04:07:00;;;;;;;26.48;18.05;;;11.10;99.90;;;;;;5097173;28;20030;-71
2021/04/23 04:09:26;;;;;;;23.30;17.35;;;11.10;99.90;;;;;;5115172;28;20456;-70
2021/04/23 04:11:53;;;;;;;25.10;17.63;;;11.20;99.90;;;;;;5115071;28;20024;-71
2021/04/23 04:14:19;;;;;;;24.00;17.70;;;11.10;99.90;;;;;;5097042;28;20023;-71
2021/04/23 04:16:45;;;;;;;25.40;17.92;;;11.20;99.90;;;;;;5115382;28;20379;-72
2021/04/23 04:19:11;;;;;;;28.27;18.73;;;11.20;99.90;;;;;;5115247;28;20023;-71
2021/04/23 04:21:37;;;;;;;26.75;17.10;;;11.20;99.90;;;;;;5115441;28;20483;-73
2021/04/23 04:24:03;;;;;;;23.23;18.05;;;11.20;99.90;;;;;;5115469;28;20196;-74
2021/04/23 04:26:29;;;;;;;24.35;18.05;;;11.20;99.90;;;;;;5077020;28;20055;-71
2021/04/23 04:28:55;;;;;;;25.00;17.63;;;11.20;99.90;;;;;;5074429;28;20384;-71
2021/04/23 04:31:21;;;;;;;34.97;24.50;;;11.20;99.90;;;;;;5074141;28;20430;-72
2021/04/23 04:33:48;;;;;;;32.03;22.58;;;11.20;99.90;;;;;;5073169;28;20428;-70
2021/04/23 04:36:14;;;;;;;29.95;20.30;;;11.20;99.90;;;;;;5073019;28;20389;-73
2021/04/23 04:38:40;;;;;;;27.13;18.75;;;11.20;99.90;;;;;;5074324;28;20062;-72
2021/04/23 04:41:06;;;;;;;30.98;19.02;;;11.20;99.90;;;;;;5074152;28;20358;-73
2021/04/23 04:43:32;;;;;;;27.45;19.33;;;11.20;99.90;;;;;;5072839;28;20619;-70
2021/04/23 04:45:59;;;;;;;33.75;19.45;;;11.20;99.90;;;;;;5072883;28;20048;-70
2021/04/23 04:48:24;;;;;;;33.25;19.90;;;11.20;99.90;;;;;;5072767;28;20031;-70
2021/04/23 04:50:56;;;;;;;26.08;19.42;;;11.20;99.90;;;;;;5073813;28;20115;-69
2021/04/23 04:53:22;;;;;;;;;;;11.20;99.90;;;;;;5072248;28;20024;-70
2021/04/23 04:55:50;;;;;;;28.55;19.33;;;11.20;99.90;;;;;;5072966;28;19985;-70
2021/04/23 04:58:20;;;;;;;31.08;21.63;;;11.20;99.90;;;;;;5072272;28;20033;-70
2021/04/23 05:00:46;;;;;;;29.10;20.98;;;11.10;99.90;;;;;;5073656;28;20111;-71
2021/04/23 05:03:14;;;;;;;25.23;18.33;;;11.10;99.90;;;;;;5073623;28;20039;-71
2021/04/23 05:05:41;;;;;;;27.83;20.67;;;11.10;99.90;;;;;;5073131;28;20388;-71
2021/04/23 05:08:07;;;;;;;28.70;20.38;;;11.20;99.90;;;;;;5073383;28;20472;-69
2021/04/23 05:10:33;;;;;;;28.80;20.70;;;11.20;99.90;;;;;;5073828;28;20036;-71
2021/04/23 05:12:59;;;;;;;32.17;21.10;;;11.20;99.90;;;;;;5073826;28;20081;-72
2021/04/23 05:15:26;;;;;;;33.55;22.92;;;11.10;99.90;;;;;;5073250;28;20037;-70
2021/04/23 05:17:52;;;;;;;35.95;23.73;;;11.10;99.90;;;;;;5073433;28;20056;-72
2021/04/23 05:20:20;;;;;;;38.70;23.58;;;11.20;99.90;;;;;;5072063;28;20063;-71
2021/04/23 05:22:46;;;;;;;33.58;22.33;;;11.10;99.90;;;;;;5072966;28;20560;-70
2021/04/23 05:25:15;;;;;;;35.67;21.90;;;11.10;99.90;;;;;;5078259;28;20056;-70
2021/04/23 05:27:41;;;;;;;34.65;20.67;;;11.10;99.90;;;;;;5114065;28;20031;-70
2021/04/23 05:30:10;;;;;;;41.45;24.30;;;11.10;99.90;;;;;;5095642;28;20080;-70
2021/04/23 05:32:37;;;;;;;36.95;22.23;;;11.10;99.90;;;;;;5095516;28;20024;-73
2021/04/23 05:35:03;;;;;;;30.98;21.23;;;11.10;99.90;;;;;;5113874;28;20027;-71
2021/04/23 05:37:29;;;;;;;33.65;22.10;;;11.10;99.90;;;;;;5095313;28;20077;-71
2021/04/23 05:39:55;;;;;;;33.00;20.77;;;11.20;99.90;;;;;;5129450;27;20425;-72
2021/04/23 05:42:21;;;;;;;39.28;22.20;;;11.20;99.90;;;;;;5113321;28;20384;-71
2021/04/23 05:44:47;;;;;;;30.33;19.25;;;11.20;99.90;;;;;;5113492;28;20466;-70
2021/04/23 05:47:13;;;;;;;31.98;19.10;;;11.30;99.90;;;;;;5113813;28;20110;-69
2021/04/23 05:49:39;;;;;;;31.50;19.42;;;11.30;99.90;;;;;;5095171;28;20467;-70
2021/04/23 05:52:07;;;;;;;33.47;22.27;;;11.40;99.90;;;;;;5113490;28;20031;-71
2021/04/23 05:54:34;;;;;;;32.53;21.75;;;11.40;99.90;;;;;;5113650;28;20059;-75
2021/04/23 05:57:00;;;;;;;38.28;20.30;;;11.40;99.90;;;;;;5095154;28;20019;-72
2021/04/23 05:59:26;;;;;;;30.52;18.58;;;11.50;99.90;;;;;;5113561;28;20099;-73
2021/04/23 06:01:52;;;;;;;35.03;21.80;;;11.50;99.90;;;;;;5113432;28;20027;-72
2021/04/23 06:04:18;;;;;;;29.08;19.33;;;11.60;99.90;;;;;;5114207;28;20135;-72
2021/04/23 06:06:44;;;;;;;28.65;20.58;;;11.60;99.90;;;;;;5095112;28;20550;-71
2021/04/23 06:09:11;;;;;;;28.85;17.80;;;11.60;99.90;;;;;;5113401;28;20069;-71
2021/04/23 06:11:37;;;;;;;28.83;18.25;;;11.60;99.20;;;;;;5097093;28;20384;-71
2021/04/23 06:14:04;;;;;;;30.20;19.92;;;11.70;99.30;;;;;;5099251;28;20294;-72
2021/04/23 06:16:30;;;;;;;27.25;18.15;;;11.80;99.90;;;;;;5099235;28;20031;-71
2021/04/23 06:18:57;;;;;;;40.25;19.50;;;11.90;99.90;;;;;;5117736;28;20098;-72
2021/04/23 06:21:23;;;;;;;34.90;18.40;;;11.90;99.50;;;;;;5117375;28;20050;-72
2021/04/23 06:23:49;;;;;;;26.80;17.58;;;11.90;99.50;;;;;;5117038;28;20077;-71
2021/04/23 06:26:16;;;;;;;23.83;17.58;;;11.90;99.20;;;;;;5098895;28;20051;-72
2021/04/23 06:28:44;;;;;;;29.60;17.52;;;12.00;98.60;;;;;;5117015;28;20031;-72
2021/04/23 06:31:14;;;;;;;26.70;17.42;;;12.00;97.20;;;;;;5115408;28;20027;-73
2021/04/23 06:33:45;;;;;;;25.52;17.90;;;12.10;96.70;;;;;;5098614;28;20015;-72
2021/04/23 06:36:11;;;;;;;21.08;14.98;;;12.20;97.90;;;;;;5098775;28;20115;-71
2021/04/23 06:38:37;;;;;;;25.08;16.25;;;12.20;96.60;;;;;;5117181;28;20077;-72
2021/04/23 06:41:05;;;;;;;24.50;15.52;;;12.30;95.90;;;;;;5116313;27;20039;-72
2021/04/23 06:43:31;;;;;;;29.00;14.48;;;12.30;96.00;;;;;;5098491;28;20039;-71
2021/04/23 06:45:57;;;;;;;21.30;14.88;;;12.30;94.90;;;;;;5116950;28;20027;-70
2021/04/23 06:48:24;;;;;;;21.70;14.40;;;12.40;94.40;;;;;;5116572;28;20023;-72
2021/04/23 06:50:50;;;;;;;19.63;13.77;;;12.40;95.60;;;;;;5116824;27;20039;-71
2021/04/23 06:53:18;;;;;;;17.05;13.05;;;12.50;96.10;;;;;;5098514;28;20361;-70
2021/04/23 06:55:45;;;;;;;22.38;14.70;;;12.30;95.90;;;;;;5098682;28;20114;-70
2021/04/23 06:58:11;;;;;;;21.90;14.82;;;12.40;97.70;;;;;;5116684;28;20020;-70
2021/04/23 07:00:38;;;;;;;24.13;15.23;;;12.30;95.50;;;;;;5098247;28;20031;-72
2021/04/23 07:03:10;;;;;;;23.83;13.88;;;12.50;95.30;;;;;;5098035;28;20141;-71
2021/04/23 07:05:37;;;;;;;24.98;14.25;;;12.50;94.00;;;;;;5098371;28;20452;-71
2021/04/23 07:08:04;;;;;;;21.45;13.88;;;12.60;94.80;;;;;;5116487;28;20472;-70
2021/04/23 07:10:30;;;;;;;29.60;15.57;;;12.70;94.50;;;;;;5117237;28;20475;-72
2021/04/23 07:12:56;;;;;;;23.48;15.65;;;13.00;93.50;;;;;;5098133;28;20527;-70
2021/04/23 07:15:24;;;;;;;18.83;12.10;;;13.10;92.50;;;;;;5097427;28;20050;-70
2021/04/23 07:17:55;;;;;;;19.38;12.93;;;13.10;91.10;;;;;;5098068;28;20179;-70
2021/04/23 07:20:21;;;;;;;20.73;13.48;;;13.10;92.40;;;;;;5116427;28;20463;-70
2021/04/23 07:22:48;;;;;;;26.00;13.23;;;13.10;92.00;;;;;;5115478;28;20097;-68
2021/04/23 07:25:14;;;;;;;18.23;11.77;;;13.10;90.60;;;;;;5093853;28;20082;-69
2021/04/23 07:27:40;;;;;;;48.95;25.73;;;13.10;90.10;;;;;;5095890;28;20028;-71
2021/04/23 07:30:12;;;;;;;22.90;11.50;;;13.10;90.00;;;;;;5096160;28;20039;-72
2021/04/23 07:32:38;;;;;;;23.52;12.00;;;13.20;89.40;;;;;;5095576;28;20418;-69
2021/04/23 07:35:04;;;;;;;20.83;12.68;;;13.10;90.40;;;;;;5095655;28;20032;-71
2021/04/23 07:37:30;;;;;;;17.60;12.05;;;13.20;89.60;;;;;;5095306;28;20414;-71
2021/04/23 07:39:56;;;;;;;16.60;10.30;;;13.20;87.90;;;;;;5094098;28;20036;-71
2021/04/23 07:42:22;;;;;;;28.55;12.63;;;13.20;85.90;;;;;;5094229;28;20522;-71
2021/04/23 07:44:48;;;;;;;26.33;12.23;;;13.10;86.80;;;;;;5095172;28;20029;-71
2021/04/23 07:47:14;;;;;;;22.92;12.73;;;13.10;86.60;;;;;;5095178;28;20028;-71
2021/04/23 07:49:39;;;;;;;21.73;12.63;;;13.00;86.50;;;;;;5095424;28;20031;-70
2021/04/23 07:52:06;;;;;;;21.80;11.43;;;13.30;88.30;;;;;;5095308;28;20457;-71
2021/04/23 07:54:32;;;;;;;21.70;11.60;;;13.30;86.60;;;;;;5095255;28;20050;-70
2021/04/23 07:56:58;;;;;;;19.77;10.18;;;;;;;;;;5095540;28;20024;-71
2021/04/23 07:59:24;;;;;;;19.50;11.45;;;;;;;;;;5094861;28;20507;-71
2021/04/23 08:01:54;;;;;;;19.02;11.93;;;14.10;85.40;;;;;;5093549;28;20035;-71
2021/04/23 08:04:20;;;;;;;24.33;10.65;;;14.10;85.30;;;;;;5094531;28;20016;-69
2021/04/23 08:06:46;;;;;;;25.17;12.93;;;14.30;85.00;;;;;;5095115;28;20020;-73
2021/04/23 08:09:12;;;;;;;27.48;13.70;;;14.60;85.70;;;;;;5094908;28;20020;-72
2021/04/23 08:11:39;;;;;;;17.33;11.02;;;14.80;83.70;;;;;;5094785;28;20077;-70
2021/04/23 08:14:05;;;;;;;17.23;10.50;;;14.80;84.60;;;;;;5093599;28;20031;-71
2021/04/23 08:16:31;;;;;;;16.70;10.05;;;15.00;82.80;;;;;;5093554;28;20388;-72
2021/04/23 08:18:57;;;;;;;14.48;9.75;;;15.30;80.50;;;;;;5094860;28;20024;-71
2021/04/23 08:21:23;;;;;;;14.80;9.25;;;15.30;78.70;;;;;;5094588;28;20461;-71
2021/04/23 08:23:50;;;;;;;16.13;9.27;;;15.40;75.60;;;;;;5093492;28;20435;-71
2021/04/23 08:26:17;;;;;;;31.73;16.52;;;15.50;77.60;;;;;;5092979;28;20055;-71
2021/04/23 08:28:43;;;;;;;20.58;9.23;;;15.60;73.60;;;;;;5094948;28;20024;-73
2021/04/23 08:31:10;;;;;;;14.18;8.88;;;15.90;73.20;;;;;;5094641;28;20073;-72
2021/04/23 08:33:36;;;;;;;18.63;7.82;;;15.90;72.90;;;;;;5092447;28;20410;-72
2021/04/23 08:36:03;;;;;;;16.08;7.35;;;15.70;65.30;;;;;;5094591;28;20460;-72
2021/04/23 08:38:29;;;;;;;11.68;6.15;;;16.20;65.40;;;;;;5094446;28;20056;-73
2021/04/23 08:40:57;;;;;;;13.27;7.18;;;16.70;67.10;;;;;;5094252;28;20038;-71
2021/04/23 08:43:27;;;;;;;14.57;6.57;;;17.10;65.30;;;;;;5094379;28;20028;-70
2021/04/23 08:45:53;;;;;;;14.80;7.60;;;16.60;60.80;;;;;;5094647;28;20024;-69
2021/04/23 08:48:20;;;;;;;14.52;6.80;;;16.60;62.80;;;;;;5094325;28;20035;-72
2021/04/23 08:50:47;;;;;;;16.40;7.00;;;16.90;64.20;;;;;;5094202;28;20067;-70
2021/04/23 08:53:13;;;;;;;14.05;6.20;;;17.00;60.60;;;;;;5094243;28;20028;-69
2021/04/23 08:55:39;;;;;;;10.90;6.38;;;17.00;56.50;;;;;;5094142;28;20039;-71
2021/04/23 08:58:05;;;;;;;12.77;5.57;;;17.00;56.20;;;;;;5094105;28;20024;-70
2021/04/23 09:00:31;;;;;;;10.57;5.70;;;17.20;53.40;;;;;;5093895;28;20035;-72
2021/04/23 09:02:57;;;;;;;8.43;5.25;;;17.20;53.50;;;;;;5092612;28;20036;-71
2021/04/23 09:05:23;;;;;;;12.57;6.45;;;17.40;55.90;;;;;;5093174;28;20169;-70
2021/04/23 09:08:04;;;;;;;12.77;6.70;;;17.40;54.40;;;;;;5094213;28;20052;-69
2021/04/23 09:10:32;;;;;;;20.42;9.90;;;17.60;54.70;;;;;;5093964;28;20055;-69
2021/04/23 09:13:16;;;;;;;40.60;20.35;;;17.50;51.90;;;;;;5092494;28;20031;-71
2021/04/23 09:16:20;;;;;;;21.88;13.23;;;17.70;50.10;;;;;;5092317;28;20024;-72
2021/04/23 09:18:46;;;;;;;36.08;24.67;;;17.80;49.90;;;;;;5092239;28;20028;-72
2021/04/23 09:21:15;;;;;;;21.42;13.48;;;18.00;49.50;;;;;;5092238;28;20035;-68
2021/04/23 09:23:52;;;;;;;17.13;8.45;;;18.00;50.50;;;;;;5093516;28;20052;-72
2021/04/23 09:26:51;;;;;;;17.38;8.27;;;;;;;;;;5105801;28;20127;-71
2021/04/23 09:29:30;;;;;;;18.65;5.38;;;;;;;;;;4994575;28;20096;-69
2021/04/23 09:32:07;;;;;;;9.70;5.15;;;;;;;;;;5011068;28;20173;-70
2021/04/23 09:34:34;;;;;;;13.10;6.70;;;;;;;;;;5011072;28;20053;-71
2021/04/23 09:37:00;;;;;;;18.55;8.75;;;;;;;;;;5011172;28;20508;-72
2021/04/23 09:39:28;;;;;;;12.00;6.47;;;;;;;;;;5011009;28;20461;-72
2021/04/23 09:42:09;;;;;;;12.15;6.35;;;;;;;;;;5011175;28;20038;-71
2021/04/23 09:44:44;;;;;;;9.05;5.53;;;;;;;;;;4994004;28;20429;-72
2021/04/23 09:47:14;;;;;;;10.80;5.75;;;;;;;;;;4994388;28;20055;-70
2021/04/23 09:49:44;;;;;;;12.73;5.53;;;;;;;;;;5023728;28;20423;-72
2021/04/23 09:52:12;;;;;;;10.50;5.32;;;;;;;;;;5024005;28;20111;-70
2021/04/23 09:54:38;;;;;;;13.82;6.13;;;;;;;;;;5010344;28;20025;-70
2021/04/23 09:57:19;;;;;;;10.75;5.63;;;;;;;;;;5030437;28;20021;-71
2021/04/23 09:59:49;;;;;;;14.32;6.60;;;;;;;;;;5013272;28;20033;-70
2021/04/23 10:02:16;;;;;;;12.50;6.18;;;;;;;;;;5013811;28;20017;-69
2021/04/23 10:04:44;;;;;;;20.55;7.45;;;;;;;;;;5076388;27;20108;-71
2021/04/23 10:07:22;;;;;;;12.70;5.93;;;;;;;;;;5115023;28;20061;-69
2021/04/23 10:10:02;;;;;;;10.80;5.40;;;;;;;;;;5133723;28;20019;-71
2021/04/23 10:12:30;;;;;;;12.07;5.50;;;;;;;;;;5133930;28;20019;-70
2021/04/23 10:15:20;;;;;;;55.60;28.35;;;;;;;;;;5133826;28;20076;-70
2021/04/23 10:17:47;;;;;;;16.92;8.65;;;;;;;;;;5121609;28;20120;-73
2021/04/23 10:20:15;;;;;;;14.77;6.05;;;;;;;;;;5099771;28;20444;-72
2021/04/23 10:22:43;;;;;;;17.90;10.60;;;;;;;;;;5094916;28;20073;-71
2021/04/23 10:25:10;;;;;;;15.88;8.13;;;;;;;;;;5112930;28;20028;-74
2021/04/23 10:27:37;;;;;;;25.67;8.93;;;;;;;;;;5112802;28;20364;-72
2021/04/23 10:30:14;;;;;;;9.60;4.70;;;;;;;;;;5113011;28;20026;-71
2021/04/23 10:32:40;;;;;;;11.77;5.53;;;21.40;39.00;;;;;;5112649;28;20459;-71
2021/04/23 10:35:07;;;;;;;10.38;4.90;;;21.40;37.60;;;;;;5094637;28;20028;-69
2021/04/23 10:37:33;;;;;;;10.18;4.97;;;21.40;37.00;;;;;;5094711;28;20027;-71
2021/04/23 10:39:59;;;;;;;10.80;4.25;;;21.80;38.40;;;;;;5112839;28;20106;-70
2021/04/23 10:42:44;;;;;;;8.90;5.40;;;22.00;37.00;;;;;;5094517;28;20032;-69
2021/04/23 10:45:37;;;;;;;10.38;5.35;;;23.00;35.50;;;;;;5094517;28;20031;-71
2021/04/23 10:48:11;;;;;;;8.57;4.80;;;23.10;36.80;;;;;;5112548;28;20484;-73
2021/04/23 10:50:41;;;;;;;10.35;5.03;;;23.60;35.30;;;;;;5112291;28;20063;-72
2021/04/23 10:53:08;;;;;;;10.35;4.78;;;;;;;;;;5112388;28;20020;-71
2021/04/23 10:55:46;;;;;;;10.52;5.35;;;;;;;;;;5112699;28;20050;-72
2021/04/23 10:58:14;;;;;;;8.45;4.80;;;;;;;;;;5096981;28;20023;-72
2021/04/23 11:00:45;;;;;;;7.07;4.38;;;;;;;;;;5116464;28;20040;-70
2021/04/23 11:03:20;;;;;;;11.57;5.18;;;;;;;;;;5116753;28;20074;-71
2021/04/23 11:05:51;;;;;;;9.93;4.80;;;;;;;;;;5116903;28;20024;-71
2021/04/23 11:08:17;;;;;;;10.73;5.43;;;;;;;;;;5116516;28;20020;-72
2021/04/23 11:11:02;;;;;;;8.48;4.25;;;;;;;;;;5116057;28;20353;-72
2021/04/23 11:13:28;;;;;;;8.50;4.38;;;;;;;;;;5116474;28;20031;-71
2021/04/23 11:16:13;;;;;;;9.13;4.68;;;;;;;;;;5116420;28;20145;-70
2021/04/23 11:18:40;;;;;;;7.38;3.60;;;;;;;;;;5115968;28;20024;-70
2021/04/23 11:21:25;;;;;;;12.88;5.45;;;;;;;;;;5098000;28;20035;-72
2021/04/23 11:24:06;;;;;;;59.28;32.58;;;;;;;;;;5116461;28;20027;-72
2021/04/23 11:26:50;;;;;;;32.63;16.85;;;;;;;;;;5115562;28;20043;-70
2021/04/23 11:29:17;;;;;;;23.23;13.43;;;;;;;;;;5116140;28;20027;-74
2021/04/23 11:32:02;;;;;;;22.92;12.10;;;;;;;;;;5116067;28;20095;-69
2021/04/23 11:34:34;;;;;;;14.40;7.22;;;;;;;;;;5115729;28;20024;-71
2021/04/23 11:37:01;;;;;;;12.48;7.47;;;;;;;;;;5116166;28;20023;-71
2021/04/23 11:39:31;;;;;;;19.05;8.30;;;;;;;;;;5115444;28;20544;-71
2021/04/23 11:42:21;;;;;;;35.83;19.17;;;;;;;;;;5097330;28;20027;-71
2021/04/23 11:44:50;;;;;;;16.58;5.05;;;;;;;;;;5051422;28;20027;-70
2021/04/23 11:47:19;;;;;;;33.05;17.40;;;;;;;;;;5115959;28;20068;-72
2021/04/23 11:49:45;;;;;;;18.52;11.65;;;;;;;;;;5115886;28;20011;-72
2021/04/23 11:52:11;;;;;;;16.50;9.23;;;;;;;;;;5115606;28;20106;-71
2021/04/23 11:54:44;;;;;;;9.43;3.97;;;;;;;;;;5097167;28;20107;-69
2021/04/23 11:57:12;;;;;;;14.93;8.98;;;;;;;;;;5115519;28;20031;-72
2021/04/23 11:59:56;;;;;;;45.33;20.85;;;;;;;;;;5115307;28;20064;-72
2021/04/23 12:02:40;;;;;;;11.93;6.55;;;;;;;;;;5097430;28;20023;-71
2021/04/23 12:05:08;;;;;;;11.07;6.07;;;;;;;;;;5115526;28;20020;-72
2021/04/23 12:07:41;;;;;;;17.08;7.47;;;;;;;;;;5115486;28;20111;-71
2021/04/23 12:10:09;;;;;;;11.77;6.97;;;;;;;;;;5114272;28;20102;-71
2021/04/23 12:12:36;;;;;;;9.73;4.07;;;;;;;;;;5097015;28;20068;-73
2021/04/23 12:15:03;;;;;;;5.93;3.53;;;;;;;;;;5115102;28;20494;-73
2021/04/23 12:17:39;;;;;;;5.55;4.20;;;;;;;;;;5115498;28;20032;-72
2021/04/23 12:20:15;;;;;;;11.32;5.18;;;;;;;;;;5096648;28;20494;-71
2021/04/23 12:22:42;;;;;;;8.32;3.97;;;;;;;;;;5096727;28;20045;-72
2021/04/23 12:25:46;;;;;;;9.38;3.75;;;;;;;;;;5114693;28;20020;-72
2021/04/23 12:28:18;;;;;;;8.00;3.50;;;;;;;;;;5012201;28;20026;-71
2021/04/23 12:30:45;;;;;;;8.52;3.20;;;;;;;;;;5012064;28;20065;-72
2021/04/23 12:33:11;;;;;;;11.73;3.80;;;;;;;;;;4995435;28;20065;-74
2021/04/23 12:35:39;;;;;;;11.68;3.50;;;;;;;;;;4995689;28;20108;-72
2021/04/23 12:38:07;;;;;;;6.25;3.42;;;;;;;;;;5012121;28;20026;-72
2021/04/23 12:40:34;;;;;;;8.48;3.80;;;;;;;;;;4995463;28;20037;-72
2021/04/23 12:43:11;;;;;;;8.80;5.22;;;;;;;;;;5011908;28;20026;-74
2021/04/23 12:45:41;;;;;;;7.88;3.85;;;;;;;;;;4995499;28;20064;-71
2021/04/23 12:48:08;;;;;;;6.55;3.50;;;;;;;;;;5011908;28;20104;-72
2021/04/23 12:50:35;;;;;;;6.85;3.78;;;;;;;;;;5011929;28;20545;-72
2021/04/23 12:53:01;;;;;;;7.55;3.38;;;;;;;;;;4995355;28;20034;-73
2021/04/23 12:55:27;;;;;;;8.05;3.70;;;;;;;;;;4994995;28;20057;-73
2021/04/23 12:57:56;;;;;;;13.32;4.00;;;;;;;;;;5017848;28;20093;-71
2021/04/23 13:00:22;;;;;;;7.35;3.40;;;;;;;;;;5095771;28;20031;-72
2021/04/23 13:02:49;;;;;;;8.80;4.40;;;;;;;;;;5114339;28;20084;-71
2021/04/23 13:05:17;;;;;;;8.68;5.53;;;;;;;;;;5114322;28;20016;-73
2021/04/23 13:07:43;;;;;;;13.82;9.50;;;;;;;;;;5114338;28;20016;-70